Wetterdaten: aktuell Freitag, 19.07.2019 17:20
Datum Zeit Temp. A. Feuchte A. Luftdruck Regen Wind Richtung Richtung Sonnenschein UV Solar Taupunkt Windchill Windben
19.07.2019 17:20 21,5 C 72 % 1014,2 hPa 0,0 l/m 5,8 km/h (2 Bft) SW 232 60 min 1,3 UV-I 195 W/m 16,2 C 21,5 C 19,3 km/h (3 Bft)
19.07.2019 16:20 19,9 C 79 % 1014,5 hPa 0,8 l/m 8,5 km/h (2 Bft) W 271 30 min 0,8 UV-I 125 W/m 16,1 C 19,1 C 21,7 km/h (4 Bft)
19.07.2019 15:20 22,2 C 68 % 1014,3 hPa 0,0 l/m 10,6 km/h (2 Bft) S 179 60 min 1,5 UV-I 186 W/m 16,0 C 20,9 C 24,1 km/h (4 Bft)
19.07.2019 14:20 21,8 C 70 % 1014,6 hPa 0,0 l/m 9,7 km/h (2 Bft) S 171 60 min 3,0 UV-I 402 W/m 16,1 C 20,7 C 19,3 km/h (3 Bft)
19.07.2019 13:20 20,5 C 75 % 1014,8 hPa 0,6 l/m 8,0 km/h (2 Bft) W 263 60 min 3,0 UV-I 381 W/m 15,9 C 19,9 C 16,9 km/h (3 Bft)
19.07.2019 12:20 19,3 C 77 % 1014,9 hPa 0,4 l/m 12,2 km/h (2 Bft) S-SW 200 20 min 1,0 UV-I 128 W/m 15,2 C 17,2 C 26,6 km/h (4 Bft)
19.07.2019 11:20 20,7 C 70 % 1014,5 hPa 0,4 l/m 7,4 km/h (2 Bft) SW 236 20 min 1,6 UV-I 216 W/m 15,0 C 20,3 C 19,3 km/h (3 Bft)
19.07.2019 10:20 22,1 C 62 % 1014,0 hPa 0,0 l/m 6,9 km/h (2 Bft) SW 234 60 min 1,5 UV-I 224 W/m 14,5 C 21,9 C 16,9 km/h (3 Bft)
19.07.2019 09:20 19,3 C 74 % 1013,6 hPa 0,0 l/m 7,1 km/h (2 Bft) S-SW 193 20 min 1,4 UV-I 282 W/m 14,5 C 19,0 C 12,1 km/h (2 Bft)
19.07.2019 08:20 19,3 C 68 % 1013,4 hPa 0,0 l/m 7,9 km/h (2 Bft) W 276 10 min 0,5 UV-I 163 W/m 13,2 C 18,7 C 21,7 km/h (4 Bft)
19.07.2019 07:20 19,2 C 65 % 1012,8 hPa 0,0 l/m 8,1 km/h (2 Bft) SW 236 0 min 0,0 UV-I 65 W/m 12,5 C 18,5 C 24,1 km/h (4 Bft)
19.07.2019 06:20 16,9 C 76 % 1012,4 hPa 0,0 l/m 2,3 km/h (1 Bft) S 177 0 min 0,0 UV-I 25 W/m 12,6 C 16,9 C 7,2 km/h (2 Bft)
19.07.2019 05:20 18,1 C 67 % 1012,2 hPa 0,0 l/m 4,8 km/h (1 Bft) S 169 0 min 0,0 UV-I 0 W/m 11,9 C 18,1 C 4,8 km/h (1 Bft)
19.07.2019 04:20 18,1 C 67 % 1012,0 hPa 0,0 l/m 4,8 km/h (1 Bft) S 169 0 min 0,0 UV-I 0 W/m 11,9 C 18,1 C 4,8 km/h (1 Bft)
19.07.2019 03:10 18,1 C 67 % 1011,9 hPa 0,0 l/m 4,8 km/h (1 Bft) S 169 0 min 0,0 UV-I 0 W/m 11,9 C 18,1 C 4,8 km/h (1 Bft)
19.07.2019 02:10 17,8 C 69 % 1012,1 hPa 0,0 l/m 2,4 km/h (1 Bft) S 187 0 min 0,0 UV-I 0 W/m 12,0 C 17,8 C 2,4 km/h (1 Bft)
19.07.2019 01:10 17,7 C 69 % 1012,0 hPa 0,0 l/m 2,6 km/h (1 Bft) S 187 0 min 0,0 UV-I 0 W/m 11,9 C 17,7 C 4,8 km/h (1 Bft)
19.07.2019 00:10 17,5 C 71 % 1011,9 hPa 0,0 l/m 2,1 km/h (1 Bft) S 188 0 min 0,0 UV-I 0 W/m 12,2 C 17,5 C 4,8 km/h (1 Bft)
18.07.2019 23:10 18,1 C 64 % 1011,9 hPa 0,0 l/m 0,2 km/h (0 Bft) W 263 0 min 0,0 UV-I 0 W/m 11,2 C 18,1 C 4,8 km/h (1 Bft)
18.07.2019 22:10 19,6 C 58 % 1011,8 hPa 0,0 l/m 0,3 km/h (0 Bft) W 263 0 min 0,0 UV-I 0 W/m 11,1 C 19,6 C 2,4 km/h (1 Bft)
18.07.2019 21:10 22,7 C 47 % 1011,3 hPa 0,0 l/m 4,2 km/h (1 Bft) W 263 0 min 0,0 UV-I 6 W/m 10,8 C 22,7 C 9,7 km/h (2 Bft)
18.07.2019 20:10 24,4 C 42 % 1011,0 hPa 0,0 l/m 9,5 km/h (2 Bft) W-NW 284 0 min 0,0 UV-I 40 W/m 10,6 C 23,6 C 24,1 km/h (4 Bft)
18.07.2019 19:10 25,3 C 39 % 1010,8 hPa 0,0 l/m 17,0 km/h (3 Bft) W 279 40 min 0,0 UV-I 85 W/m 10,3 C 23,4 C 33,8 km/h (5 Bft)
18.07.2019 18:10 26,9 C 36 % 1010,5 hPa 0,0 l/m 14,2 km/h (3 Bft) W 275 10 min 1,1 UV-I 330 W/m 10,6 C 25,7 C 29,0 km/h (5 Bft)
18.07.2019 18:00 26,8 C 37 % 1010,4 hPa 0,0 l/m 12,6 km/h (3 Bft) W 263 0 min 1,0 UV-I 239 W/m 10,9 C 25,8 C 31,4 km/h (5 Bft)
_ Min-Zeit 06:00 18:30 18:00 - 22:30 - - - - - 20:40 06:00 22:30
Minimum _ 16,7 C 34 % 1010,4 hPa - 0,0 km/h (0 Bft) - - - - - 10,2 C 16,7 C 0,0 km/h (0 Bft)
_ Max-Zeit 18:40 12:30 12:10 12:30 19:00 - - 18:00 14:30 14:30 17:10 18:30 19:20
Maximum _ 28,2 C 82 % 1015,0 hPa 0,4 l/m 17,3 km/h
W (3 Bft)
- - 10 min 4,0 UV-I 563 W/m 17,0 C 27,5 C 36,2 km/h
W-SW (5 Bft)
Durchschnitt _ 20,7 C 63 % 1012,6 hPa #2,2 l/m 6,6 km/h (2 Bft) S - #6:40 h 1,7 UV-I 207 W/m 12,9 C 20,3 C 14,9 km/h (3 Bft)